sensor_id;sensor_type;location;lat;lon;timestamp;pressure;altitude;pressure_sealevel;temperature;humidity
34065;BME280;20339;49.754;20.158;2023-01-19T00:02:18;95296.90;;;-0.00;97.56
34065;BME280;20339;49.754;20.158;2023-01-19T00:04:50;95292.29;;;-0.02;97.41
34065;BME280;20339;49.754;20.158;2023-01-19T00:07:23;95288.19;;;0.03;97.67
34065;BME280;20339;49.754;20.158;2023-01-19T00:09:57;95289.06;;;0.08;97.88
34065;BME280;20339;49.754;20.158;2023-01-19T00:12:29;95292.78;;;0.10;97.71
34065;BME280;20339;49.754;20.158;2023-01-19T00:15:00;95290.20;;;0.06;97.46
34065;BME280;20339;49.754;20.158;2023-01-19T00:17:34;95288.59;;;0.07;97.75
34065;BME280;20339;49.754;20.158;2023-01-19T00:20:15;95292.36;;;0.13;97.54
34065;BME280;20339;49.754;20.158;2023-01-19T00:22:47;95290.42;;;0.17;97.61
34065;BME280;20339;49.754;20.158;2023-01-19T00:25:21;95289.09;;;0.20;97.46
34065;BME280;20339;49.754;20.158;2023-01-19T00:27:56;95288.52;;;0.21;97.57
34065;BME280;20339;49.754;20.158;2023-01-19T00:30:27;95288.09;;;0.23;97.71
34065;BME280;20339;49.754;20.158;2023-01-19T00:32:58;95284.17;;;0.27;97.81
34065;BME280;20339;49.754;20.158;2023-01-19T00:35:30;95291.63;;;0.33;97.57
34065;BME280;20339;49.754;20.158;2023-01-19T00:38:01;95295.34;;;0.34;97.67
34065;BME280;20339;49.754;20.158;2023-01-19T00:40:40;95292.84;;;0.34;97.47
34065;BME280;20339;49.754;20.158;2023-01-19T00:43:15;95296.33;;;0.35;97.56
34065;BME280;20339;49.754;20.158;2023-01-19T00:45:46;95301.91;;;0.40;97.64
34065;BME280;20339;49.754;20.158;2023-01-19T00:48:19;95300.30;;;0.42;97.35
34065;BME280;20339;49.754;20.158;2023-01-19T00:50:51;95300.12;;;0.43;97.31
34065;BME280;20339;49.754;20.158;2023-01-19T00:53:23;95297.62;;;0.43;97.32
34065;BME280;20339;49.754;20.158;2023-01-19T00:55:57;95301.29;;;0.41;97.11
34065;BME280;20339;49.754;20.158;2023-01-19T00:58:28;95300.83;;;0.35;97.48
34065;BME280;20339;49.754;20.158;2023-01-19T01:00:59;95297.27;;;0.34;97.48
34065;BME280;20339;49.754;20.158;2023-01-19T01:03:33;95292.80;;;0.35;97.44
34065;BME280;20339;49.754;20.158;2023-01-19T01:06:04;95286.20;;;0.40;97.63
34065;BME280;20339;49.754;20.158;2023-01-19T01:08:38;95282.88;;;0.44;97.17
34065;BME280;20339;49.754;20.158;2023-01-19T01:11:09;95280.89;;;0.50;97.30
34065;BME280;20339;49.754;20.158;2023-01-19T01:13:44;95275.54;;;0.53;97.13
34065;BME280;20339;49.754;20.158;2023-01-19T01:16:18;95271.88;;;0.56;97.15
34065;BME280;20339;49.754;20.158;2023-01-19T01:18:51;95269.30;;;0.59;96.80
34065;BME280;20339;49.754;20.158;2023-01-19T01:21:22;95266.29;;;0.62;96.75
34065;BME280;20339;49.754;20.158;2023-01-19T01:23:54;95269.91;;;0.65;96.86
34065;BME280;20339;49.754;20.158;2023-01-19T01:26:26;95267.16;;;0.67;96.70
34065;BME280;20339;49.754;20.158;2023-01-19T01:28:59;95263.73;;;0.69;96.54
34065;BME280;20339;49.754;20.158;2023-01-19T01:31:31;95259.59;;;0.71;96.17
34065;BME280;20339;49.754;20.158;2023-01-19T01:34:01;95256.42;;;0.72;96.09
34065;BME280;20339;49.754;20.158;2023-01-19T01:36:32;95254.49;;;0.73;96.07
34065;BME280;20339;49.754;20.158;2023-01-19T01:39:06;95253.64;;;0.72;95.96
34065;BME280;20339;49.754;20.158;2023-01-19T01:41:39;95256.38;;;0.74;95.83
34065;BME280;20339;49.754;20.158;2023-01-19T01:44:46;95257.47;;;0.73;96.07
34065;BME280;20339;49.754;20.158;2023-01-19T01:47:26;95255.89;;;0.80;95.83
34065;BME280;20339;49.754;20.158;2023-01-19T01:50:06;95253.93;;;0.83;95.64
34065;BME280;20339;49.754;20.158;2023-01-19T01:52:41;95250.73;;;0.82;95.84
34065;BME280;20339;49.754;20.158;2023-01-19T01:55:15;95253.14;;;0.84;95.47
34065;BME280;20339;49.754;20.158;2023-01-19T01:57:53;95246.83;;;0.87;95.54
34065;BME280;20339;49.754;20.158;2023-01-19T02:00:26;95242.69;;;0.95;95.33
34065;BME280;20339;49.754;20.158;2023-01-19T02:03:17;95245.41;;;0.98;95.15
34065;BME280;20339;49.754;20.158;2023-01-19T02:05:49;95242.08;;;0.98;95.21
34065;BME280;20339;49.754;20.158;2023-01-19T02:08:31;95239.00;;;0.98;95.27
34065;BME280;20339;49.754;20.158;2023-01-19T02:11:22;95238.56;;;0.94;95.02
34065;BME280;20339;49.754;20.158;2023-01-19T02:14:10;95235.58;;;0.91;95.22
34065;BME280;20339;49.754;20.158;2023-01-19T02:16:43;95238.38;;;0.89;95.04
34065;BME280;20339;49.754;20.158;2023-01-19T02:19:20;95237.91;;;0.87;95.08
34065;BME280;20339;49.754;20.158;2023-01-19T02:21:57;95237.78;;;0.85;94.97
34065;BME280;20339;49.754;20.158;2023-01-19T02:24:33;95235.50;;;0.83;95.32
34065;BME280;20339;49.754;20.158;2023-01-19T02:27:07;95232.66;;;0.84;95.31
34065;BME280;20339;49.754;20.158;2023-01-19T02:29:39;95234.19;;;0.86;95.14
34065;BME280;20339;49.754;20.158;2023-01-19T02:32:11;95230.50;;;0.86;95.26
34065;BME280;20339;49.754;20.158;2023-01-19T02:34:43;95222.99;;;0.84;95.09
34065;BME280;20339;49.754;20.158;2023-01-19T02:37:16;95224.60;;;0.83;95.26
34065;BME280;20339;49.754;20.158;2023-01-19T02:39:51;95224.92;;;0.84;95.30
34065;BME280;20339;49.754;20.158;2023-01-19T02:42:26;95221.41;;;0.86;95.16
34065;BME280;20339;49.754;20.158;2023-01-19T02:44:57;95225.91;;;0.90;95.00
34065;BME280;20339;49.754;20.158;2023-01-19T02:47:39;95227.95;;;0.89;94.88
34065;BME280;20339;49.754;20.158;2023-01-19T02:50:37;95229.45;;;0.86;94.92
34065;BME280;20339;49.754;20.158;2023-01-19T02:53:23;95232.00;;;0.85;94.92
34065;BME280;20339;49.754;20.158;2023-01-19T02:55:57;95227.08;;;0.85;95.00
34065;BME280;20339;49.754;20.158;2023-01-19T02:58:34;95225.83;;;0.85;94.95
34065;BME280;20339;49.754;20.158;2023-01-19T03:01:18;95223.60;;;0.86;95.13
34065;BME280;20339;49.754;20.158;2023-01-19T03:03:55;95223.70;;;0.85;94.95
34065;BME280;20339;49.754;20.158;2023-01-19T03:06:38;95223.14;;;0.82;95.18
34065;BME280;20339;49.754;20.158;2023-01-19T03:09:19;95220.71;;;0.78;95.06
34065;BME280;20339;49.754;20.158;2023-01-19T03:11:57;95222.64;;;0.77;95.33
34065;BME280;20339;49.754;20.158;2023-01-19T03:14:39;95227.80;;;0.76;95.29
34065;BME280;20339;49.754;20.158;2023-01-19T03:17:13;95226.29;;;0.77;95.14
34065;BME280;20339;49.754;20.158;2023-01-19T03:19:49;95223.69;;;0.77;95.43
34065;BME280;20339;49.754;20.158;2023-01-19T03:22:23;95225.77;;;0.78;95.42
34065;BME280;20339;49.754;20.158;2023-01-19T03:25:00;95230.63;;;0.79;95.27
34065;BME280;20339;49.754;20.158;2023-01-19T03:27:35;95234.83;;;0.81;95.26
34065;BME280;20339;49.754;20.158;2023-01-19T03:30:13;95231.38;;;0.83;95.21
34065;BME280;20339;49.754;20.158;2023-01-19T03:32:50;95231.55;;;0.83;95.12
34065;BME280;20339;49.754;20.158;2023-01-19T03:35:24;95230.91;;;0.83;95.30
34065;BME280;20339;49.754;20.158;2023-01-19T03:37:56;95229.76;;;0.82;95.06
34065;BME280;20339;49.754;20.158;2023-01-19T03:40:31;95231.22;;;0.81;95.03
34065;BME280;20339;49.754;20.158;2023-01-19T03:43:04;95236.48;;;0.81;95.36
34065;BME280;20339;49.754;20.158;2023-01-19T03:45:38;95233.61;;;0.82;95.22
34065;BME280;20339;49.754;20.158;2023-01-19T03:48:09;95237.91;;;0.82;95.31
34065;BME280;20339;49.754;20.158;2023-01-19T03:50:41;95239.31;;;0.83;95.28
34065;BME280;20339;49.754;20.158;2023-01-19T03:53:16;95237.02;;;0.82;95.48
34065;BME280;20339;49.754;20.158;2023-01-19T03:55:49;95239.20;;;0.83;95.09
34065;BME280;20339;49.754;20.158;2023-01-19T03:58:20;95246.86;;;0.85;95.25
34065;BME280;20339;49.754;20.158;2023-01-19T04:00:53;95242.80;;;0.86;95.26
34065;BME280;20339;49.754;20.158;2023-01-19T04:03:25;95238.80;;;0.91;95.18
34065;BME280;20339;49.754;20.158;2023-01-19T04:05:56;95229.58;;;0.92;95.16
34065;BME280;20339;49.754;20.158;2023-01-19T04:08:28;95221.45;;;0.97;94.89
34065;BME280;20339;49.754;20.158;2023-01-19T04:11:01;95218.76;;;0.98;94.87
34065;BME280;20339;49.754;20.158;2023-01-19T04:13:32;95208.55;;;0.99;94.74
34065;BME280;20339;49.754;20.158;2023-01-19T04:16:05;95194.20;;;0.99;94.84
34065;BME280;20339;49.754;20.158;2023-01-19T04:18:36;95180.44;;;1.01;94.58
34065;BME280;20339;49.754;20.158;2023-01-19T04:21:08;95177.73;;;1.00;94.74
34065;BME280;20339;49.754;20.158;2023-01-19T04:23:39;95183.83;;;1.00;94.56
34065;BME280;20339;49.754;20.158;2023-01-19T04:26:11;95189.09;;;1.00;94.67
34065;BME280;20339;49.754;20.158;2023-01-19T04:28:42;95194.27;;;0.98;94.66
34065;BME280;20339;49.754;20.158;2023-01-19T04:31:14;95196.19;;;0.94;94.91
34065;BME280;20339;49.754;20.158;2023-01-19T04:33:46;95195.73;;;0.86;94.86
34065;BME280;20339;49.754;20.158;2023-01-19T04:36:17;95209.77;;;0.85;94.79
34065;BME280;20339;49.754;20.158;2023-01-19T04:38:48;95220.45;;;0.85;95.13
34065;BME280;20339;49.754;20.158;2023-01-19T04:41:20;95232.16;;;0.82;95.25
34065;BME280;20339;49.754;20.158;2023-01-19T04:43:51;95242.77;;;0.84;95.37
34065;BME280;20339;49.754;20.158;2023-01-19T04:46:25;95252.07;;;0.85;95.13
34065;BME280;20339;49.754;20.158;2023-01-19T04:48:56;95258.92;;;0.85;95.41
34065;BME280;20339;49.754;20.158;2023-01-19T04:51:27;95264.40;;;0.86;95.09
34065;BME280;20339;49.754;20.158;2023-01-19T04:53:58;95271.70;;;0.86;95.35
34065;BME280;20339;49.754;20.158;2023-01-19T04:56:32;95280.42;;;0.86;95.29
34065;BME280;20339;49.754;20.158;2023-01-19T04:59:05;95285.22;;;0.85;95.42
34065;BME280;20339;49.754;20.158;2023-01-19T05:01:39;95295.09;;;0.83;95.44
34065;BME280;20339;49.754;20.158;2023-01-19T05:04:10;95301.45;;;0.83;95.63
34065;BME280;20339;49.754;20.158;2023-01-19T05:06:44;95300.73;;;0.83;95.80
34065;BME280;20339;49.754;20.158;2023-01-19T05:09:15;95298.42;;;0.82;95.79
34065;BME280;20339;49.754;20.158;2023-01-19T05:11:46;95293.14;;;0.80;96.02
34065;BME280;20339;49.754;20.158;2023-01-19T05:14:18;95287.50;;;0.79;95.90
34065;BME280;20339;49.754;20.158;2023-01-19T05:16:49;95296.48;;;0.79;96.04
34065;BME280;20339;49.754;20.158;2023-01-19T05:19:20;95304.34;;;0.78;95.92
34065;BME280;20339;49.754;20.158;2023-01-19T05:21:52;95302.88;;;0.78;96.22
34065;BME280;20339;49.754;20.158;2023-01-19T05:24:24;95302.69;;;0.81;96.24
34065;BME280;20339;49.754;20.158;2023-01-19T05:26:56;95308.48;;;0.82;96.30
34065;BME280;20339;49.754;20.158;2023-01-19T05:29:27;95318.16;;;0.84;96.25
34065;BME280;20339;49.754;20.158;2023-01-19T05:31:59;95321.42;;;0.86;96.53
34065;BME280;20339;49.754;20.158;2023-01-19T05:34:32;95318.73;;;0.89;96.47
34065;BME280;20339;49.754;20.158;2023-01-19T05:37:03;95315.61;;;0.90;96.48
34065;BME280;20339;49.754;20.158;2023-01-19T05:39:34;95314.05;;;0.91;96.51
34065;BME280;20339;49.754;20.158;2023-01-19T05:42:06;95313.48;;;0.93;96.18
34065;BME280;20339;49.754;20.158;2023-01-19T05:44:37;95310.98;;;0.92;96.51
34065;BME280;20339;49.754;20.158;2023-01-19T05:47:08;95318.90;;;0.84;96.16
34065;BME280;20339;49.754;20.158;2023-01-19T05:49:41;95328.05;;;0.73;96.17
34065;BME280;20339;49.754;20.158;2023-01-19T05:52:13;95339.70;;;0.70;96.71
34065;BME280;20339;49.754;20.158;2023-01-19T05:54:44;95339.45;;;0.67;96.75
34065;BME280;20339;49.754;20.158;2023-01-19T05:57:15;95325.09;;;0.59;96.95
34065;BME280;20339;49.754;20.158;2023-01-19T05:59:47;95331.20;;;0.49;97.10
34065;BME280;20339;49.754;20.158;2023-01-19T06:02:18;95356.71;;;0.41;97.01
34065;BME280;20339;49.754;20.158;2023-01-19T06:04:49;95353.83;;;0.34;97.56
34065;BME280;20339;49.754;20.158;2023-01-19T06:07:20;95328.41;;;0.30;97.75
34065;BME280;20339;49.754;20.158;2023-01-19T06:09:52;95322.69;;;0.31;98.07
34065;BME280;20339;49.754;20.158;2023-01-19T06:12:23;95325.99;;;0.34;98.13
34065;BME280;20339;49.754;20.158;2023-01-19T06:14:54;95315.95;;;0.36;98.09
34065;BME280;20339;49.754;20.158;2023-01-19T06:17:26;95291.48;;;0.30;98.66
34065;BME280;20339;49.754;20.158;2023-01-19T06:19:57;95308.17;;;0.20;98.68
34065;BME280;20339;49.754;20.158;2023-01-19T06:22:28;95341.76;;;0.16;98.43
34065;BME280;20339;49.754;20.158;2023-01-19T06:24:59;95337.39;;;0.16;98.82
34065;BME280;20339;49.754;20.158;2023-01-19T06:27:30;95319.41;;;0.10;99.15
34065;BME280;20339;49.754;20.158;2023-01-19T06:30:02;95339.83;;;0.10;99.08
34065;BME280;20339;49.754;20.158;2023-01-19T06:32:35;95359.76;;;0.14;99.43
34065;BME280;20339;49.754;20.158;2023-01-19T06:35:07;95356.81;;;0.16;99.57
34065;BME280;20339;49.754;20.158;2023-01-19T06:37:38;95367.58;;;0.10;99.50
34065;BME280;20339;49.754;20.158;2023-01-19T06:40:13;95363.94;;;0.07;99.87
34065;BME280;20339;49.754;20.158;2023-01-19T06:42:45;95356.81;;;0.08;99.62
34065;BME280;20339;49.754;20.158;2023-01-19T06:45:18;95365.09;;;0.12;99.79
34065;BME280;20339;49.754;20.158;2023-01-19T06:47:51;95375.04;;;0.11;99.94
34065;BME280;20339;49.754;20.158;2023-01-19T06:50:22;95378.58;;;0.11;99.84
34065;BME280;20339;49.754;20.158;2023-01-19T06:52:55;95378.66;;;0.09;99.85
34065;BME280;20339;49.754;20.158;2023-01-19T06:55:27;95372.94;;;0.10;99.96
34065;BME280;20339;49.754;20.158;2023-01-19T06:57:59;95372.70;;;0.09;100.00
34065;BME280;20339;49.754;20.158;2023-01-19T07:00:30;95380.76;;;0.06;100.00
34065;BME280;20339;49.754;20.158;2023-01-19T07:03:02;95387.88;;;0.04;100.00
34065;BME280;20339;49.754;20.158;2023-01-19T07:05:36;95390.11;;;0.03;100.00
34065;BME280;20339;49.754;20.158;2023-01-19T07:08:08;95395.84;;;-0.01;100.00
34065;BME280;20339;49.754;20.158;2023-01-19T07:10:39;95396.84;;;-0.04;100.00
34065;BME280;20339;49.754;20.158;2023-01-19T07:13:10;95404.10;;;-0.06;100.00
34065;BME280;20339;49.754;20.158;2023-01-19T07:15:42;95412.80;;;-0.07;100.00
34065;BME280;20339;49.754;20.158;2023-01-19T07:18:13;95402.38;;;-0.07;100.00
34065;BME280;20339;49.754;20.158;2023-01-19T07:20:44;95392.24;;;-0.09;100.00
34065;BME280;20339;49.754;20.158;2023-01-19T07:23:18;95405.58;;;-0.10;100.00
34065;BME280;20339;49.754;20.158;2023-01-19T07:25:51;95411.70;;;-0.08;100.00
34065;BME280;20339;49.754;20.158;2023-01-19T07:28:23;95407.64;;;-0.06;100.00
34065;BME280;20339;49.754;20.158;2023-01-19T07:30:55;95391.34;;;-0.07;100.00
34065;BME280;20339;49.754;20.158;2023-01-19T07:33:27;95389.70;;;-0.08;100.00
34065;BME280;20339;49.754;20.158;2023-01-19T07:35:58;95403.85;;;-0.10;100.00
34065;BME280;20339;49.754;20.158;2023-01-19T07:38:29;95409.02;;;-0.10;100.00
34065;BME280;20339;49.754;20.158;2023-01-19T07:41:05;95400.06;;;-0.13;100.00
34065;BME280;20339;49.754;20.158;2023-01-19T07:43:37;95378.42;;;-0.17;100.00
34065;BME280;20339;49.754;20.158;2023-01-19T07:46:09;95369.67;;;-0.22;100.00
34065;BME280;20339;49.754;20.158;2023-01-19T07:48:40;95389.96;;;-0.24;100.00
34065;BME280;20339;49.754;20.158;2023-01-19T07:51:13;95399.90;;;-0.25;100.00
34065;BME280;20339;49.754;20.158;2023-01-19T07:54:00;95397.77;;;-0.24;100.00
34065;BME280;20339;49.754;20.158;2023-01-19T07:56:32;95392.70;;;-0.22;100.00
34065;BME280;20339;49.754;20.158;2023-01-19T07:59:03;95399.73;;;-0.21;100.00
34065;BME280;20339;49.754;20.158;2023-01-19T08:01:36;95408.66;;;-0.20;100.00
34065;BME280;20339;49.754;20.158;2023-01-19T08:04:07;95415.31;;;-0.21;100.00
34065;BME280;20339;49.754;20.158;2023-01-19T08:06:42;95411.63;;;-0.20;100.00
34065;BME280;20339;49.754;20.158;2023-01-19T08:09:14;95405.08;;;-0.15;100.00
34065;BME280;20339;49.754;20.158;2023-01-19T08:11:47;95413.70;;;-0.11;100.00
34065;BME280;20339;49.754;20.158;2023-01-19T08:14:19;95419.01;;;-0.06;100.00
34065;BME280;20339;49.754;20.158;2023-01-19T08:16:50;95425.23;;;-0.03;100.00
34065;BME280;20339;49.754;20.158;2023-01-19T08:19:23;95427.10;;;-0.04;100.00
34065;BME280;20339;49.754;20.158;2023-01-19T08:21:54;95419.64;;;-0.05;100.00
34065;BME280;20339;49.754;20.158;2023-01-19T08:24:27;95418.45;;;-0.01;100.00
34065;BME280;20339;49.754;20.158;2023-01-19T08:27:03;95420.77;;;0.05;100.00
34065;BME280;20339;49.754;20.158;2023-01-19T08:29:37;95419.44;;;0.07;100.00
34065;BME280;20339;49.754;20.158;2023-01-19T08:32:10;95415.71;;;0.13;100.00
34065;BME280;20339;49.754;20.158;2023-01-19T08:34:41;95417.10;;;0.20;100.00
34065;BME280;20339;49.754;20.158;2023-01-19T08:37:14;95423.83;;;0.24;100.00
34065;BME280;20339;49.754;20.158;2023-01-19T08:39:46;95416.21;;;0.24;100.00
34065;BME280;20339;49.754;20.158;2023-01-19T08:42:17;95413.10;;;0.20;100.00
34065;BME280;20339;49.754;20.158;2023-01-19T08:44:48;95408.59;;;0.23;100.00
34065;BME280;20339;49.754;20.158;2023-01-19T08:47:19;95403.20;;;0.30;100.00
34065;BME280;20339;49.754;20.158;2023-01-19T08:49:50;95405.36;;;0.37;100.00
34065;BME280;20339;49.754;20.158;2023-01-19T08:52:22;95406.84;;;0.43;100.00
34065;BME280;20339;49.754;20.158;2023-01-19T08:54:57;95398.13;;;0.51;100.00
34065;BME280;20339;49.754;20.158;2023-01-19T08:57:30;95394.42;;;0.61;100.00
34065;BME280;20339;49.754;20.158;2023-01-19T09:00:02;95387.59;;;0.67;100.00
34065;BME280;20339;49.754;20.158;2023-01-19T09:02:36;95384.94;;;0.68;100.00
34065;BME280;20339;49.754;20.158;2023-01-19T09:05:11;95382.61;;;0.69;100.00
34065;BME280;20339;49.754;20.158;2023-01-19T09:07:44;95386.62;;;0.69;100.00
34065;BME280;20339;49.754;20.158;2023-01-19T09:10:17;95395.04;;;0.70;100.00
34065;BME280;20339;49.754;20.158;2023-01-19T09:12:48;95404.70;;;0.76;100.00
34065;BME280;20339;49.754;20.158;2023-01-19T09:15:21;95403.23;;;0.83;100.00
34065;BME280;20339;49.754;20.158;2023-01-19T09:17:54;95400.84;;;0.92;100.00
34065;BME280;20339;49.754;20.158;2023-01-19T09:20:26;95398.67;;;0.99;100.00
34065;BME280;20339;49.754;20.158;2023-01-19T09:23:01;95398.39;;;1.04;100.00
34065;BME280;20339;49.754;20.158;2023-01-19T09:25:33;95392.48;;;1.10;100.00
34065;BME280;20339;49.754;20.158;2023-01-19T09:28:05;95398.70;;;1.11;100.00
34065;BME280;20339;49.754;20.158;2023-01-19T09:30:37;95393.53;;;1.13;100.00
34065;BME280;20339;49.754;20.158;2023-01-19T09:33:12;95391.30;;;1.15;100.00
34065;BME280;20339;49.754;20.158;2023-01-19T09:35:45;95391.31;;;1.17;100.00
34065;BME280;20339;49.754;20.158;2023-01-19T09:38:17;95390.21;;;1.18;100.00
34065;BME280;20339;49.754;20.158;2023-01-19T09:40:53;95395.91;;;1.19;100.00
34065;BME280;20339;49.754;20.158;2023-01-19T09:43:41;95394.70;;;1.17;100.00
34065;BME280;20339;49.754;20.158;2023-01-19T09:46:20;95394.34;;;1.12;100.00
34065;BME280;20339;49.754;20.158;2023-01-19T09:48:56;95388.11;;;0.99;100.00
34065;BME280;20339;49.754;20.158;2023-01-19T09:51:34;95386.55;;;0.88;100.00
34065;BME280;20339;49.754;20.158;2023-01-19T09:54:12;95381.84;;;0.85;100.00
34065;BME280;20339;49.754;20.158;2023-01-19T09:56:45;95380.24;;;0.84;100.00
34065;BME280;20339;49.754;20.158;2023-01-19T09:59:21;95373.70;;;0.81;100.00
34065;BME280;20339;49.754;20.158;2023-01-19T10:02:11;95372.94;;;0.83;100.00
34065;BME280;20339;49.754;20.158;2023-01-19T10:04:50;95375.13;;;0.83;100.00
34065;BME280;20339;49.754;20.158;2023-01-19T10:07:34;95375.73;;;0.82;100.00
34065;BME280;20339;49.754;20.158;2023-01-19T10:10:19;95384.10;;;0.83;100.00
34065;BME280;20339;49.754;20.158;2023-01-19T10:13:01;95380.44;;;0.83;100.00
34065;BME280;20339;49.754;20.158;2023-01-19T10:15:44;95376.36;;;0.81;100.00
34065;BME280;20339;49.754;20.158;2023-01-19T10:18:21;95372.29;;;0.86;100.00
34065;BME280;20339;49.754;20.158;2023-01-19T10:21:02;95366.73;;;0.89;100.00
34065;BME280;20339;49.754;20.158;2023-01-19T10:23:43;95364.96;;;0.89;100.00
34065;BME280;20339;49.754;20.158;2023-01-19T10:26:17;95360.05;;;0.87;100.00
34065;BME280;20339;49.754;20.158;2023-01-19T10:29:01;95356.27;;;0.81;100.00
34065;BME280;20339;49.754;20.158;2023-01-19T10:31:36;95355.84;;;0.79;100.00
34065;BME280;20339;49.754;20.158;2023-01-19T10:34:10;95352.29;;;0.85;100.00
34065;BME280;20339;49.754;20.158;2023-01-19T10:36:48;95347.59;;;0.88;100.00
34065;BME280;20339;49.754;20.158;2023-01-19T10:39:24;95351.63;;;0.92;100.00
34065;BME280;20339;49.754;20.158;2023-01-19T10:41:57;95353.11;;;0.96;100.00
34065;BME280;20339;49.754;20.158;2023-01-19T10:44:35;95349.94;;;0.97;100.00
34065;BME280;20339;49.754;20.158;2023-01-19T10:47:14;95340.70;;;0.99;100.00
34065;BME280;20339;49.754;20.158;2023-01-19T10:49:47;95335.43;;;1.02;100.00
34065;BME280;20339;49.754;20.158;2023-01-19T10:52:25;95340.95;;;1.00;100.00
34065;BME280;20339;49.754;20.158;2023-01-19T10:54:58;95347.13;;;1.02;100.00
34065;BME280;20339;49.754;20.158;2023-01-19T10:57:33;95354.76;;;1.04;100.00
34065;BME280;20339;49.754;20.158;2023-01-19T11:00:13;95355.89;;;1.01;100.00
34065;BME280;20339;49.754;20.158;2023-01-19T11:02:58;95344.63;;;0.91;100.00
34065;BME280;20339;49.754;20.158;2023-01-19T11:05:31;95333.11;;;0.92;100.00
34065;BME280;20339;49.754;20.158;2023-01-19T11:08:22;95335.30;;;0.93;100.00
34065;BME280;20339;49.754;20.158;2023-01-19T11:10:57;95337.17;;;0.91;100.00
34065;BME280;20339;49.754;20.158;2023-01-19T11:13:31;95340.29;;;0.90;100.00
34065;BME280;20339;49.754;20.158;2023-01-19T11:16:07;95336.83;;;0.88;100.00
34065;BME280;20339;49.754;20.158;2023-01-19T11:18:52;95327.67;;;0.80;100.00
34065;BME280;20339;49.754;20.158;2023-01-19T11:21:25;95319.89;;;0.67;100.00
34065;BME280;20339;49.754;20.158;2023-01-19T11:23:59;95314.02;;;0.58;100.00
34065;BME280;20339;49.754;20.158;2023-01-19T11:26:34;95308.02;;;0.46;100.00
34065;BME280;20339;49.754;20.158;2023-01-19T11:29:18;95315.80;;;0.37;100.00
34065;BME280;20339;49.754;20.158;2023-01-19T11:31:52;95325.90;;;0.29;100.00
34065;BME280;20339;49.754;20.158;2023-01-19T11:34:30;95331.75;;;0.22;100.00
34065;BME280;20339;49.754;20.158;2023-01-19T11:37:24;95335.00;;;0.18;100.00
34065;BME280;20339;49.754;20.158;2023-01-19T11:39:58;95331.92;;;0.18;100.00
34065;BME280;20339;49.754;20.158;2023-01-19T11:42:34;95325.00;;;0.19;100.00
34065;BME280;20339;49.754;20.158;2023-01-19T11:45:13;95322.13;;;0.14;100.00
34065;BME280;20339;49.754;20.158;2023-01-19T11:47:48;95318.27;;;0.10;100.00
34065;BME280;20339;49.754;20.158;2023-01-19T11:50:26;95315.27;;;0.07;100.00
34065;BME280;20339;49.754;20.158;2023-01-19T11:53:03;95310.91;;;0.04;100.00
34065;BME280;20339;49.754;20.158;2023-01-19T11:55:38;95314.20;;;0.04;100.00
34065;BME280;20339;49.754;20.158;2023-01-19T11:58:15;95307.27;;;0.05;100.00
34065;BME280;20339;49.754;20.158;2023-01-19T12:00:53;95307.54;;;0.04;100.00
34065;BME280;20339;49.754;20.158;2023-01-19T12:03:29;95309.29;;;0.03;100.00
34065;BME280;20339;49.754;20.158;2023-01-19T12:06:05;95315.09;;;0.04;100.00
34065;BME280;20339;49.754;20.158;2023-01-19T12:08:41;95322.85;;;0.04;100.00
34065;BME280;20339;49.754;20.158;2023-01-19T12:11:21;95325.84;;;0.02;100.00
34065;BME280;20339;49.754;20.158;2023-01-19T12:13:57;95326.83;;;-0.03;100.00
34065;BME280;20339;49.754;20.158;2023-01-19T12:16:31;95329.42;;;-0.03;100.00
34065;BME280;20339;49.754;20.158;2023-01-19T12:19:06;95335.22;;;-0.08;100.00
34065;BME280;20339;49.754;20.158;2023-01-19T12:21:45;95338.48;;;-0.09;100.00
34065;BME280;20339;49.754;20.158;2023-01-19T12:24:24;95341.52;;;-0.07;100.00
34065;BME280;20339;49.754;20.158;2023-01-19T12:27:03;95338.71;;;-0.02;100.00
34065;BME280;20339;49.754;20.158;2023-01-19T12:29:38;95340.63;;;0.01;100.00
34065;BME280;20339;49.754;20.158;2023-01-19T12:32:28;95343.15;;;-0.01;100.00
34065;BME280;20339;49.754;20.158;2023-01-19T12:38:34;95337.00;;;-0.01;100.00
34065;BME280;20339;49.754;20.158;2023-01-19T12:41:26;95333.20;;;-0.01;100.00
34065;BME280;20339;49.754;20.158;2023-01-19T12:44:22;95332.91;;;-0.00;100.00
34065;BME280;20339;49.754;20.158;2023-01-19T12:47:01;95336.10;;;0.01;100.00
34065;BME280;20339;49.754;20.158;2023-01-19T12:49:51;95328.88;;;0.03;100.00
34065;BME280;20339;49.754;20.158;2023-01-19T12:52:35;95333.30;;;0.07;100.00
34065;BME280;20339;49.754;20.158;2023-01-19T12:55:24;95333.31;;;0.08;100.00
34065;BME280;20339;49.754;20.158;2023-01-19T12:58:02;95335.55;;;0.07;100.00
34065;BME280;20339;49.754;20.158;2023-01-19T13:00:36;95340.05;;;0.09;100.00
34065;BME280;20339;49.754;20.158;2023-01-19T13:06:11;95337.60;;;0.18;100.00
34065;BME280;20339;49.754;20.158;2023-01-19T13:09:01;95336.77;;;0.19;100.00
34065;BME280;20339;49.754;20.158;2023-01-19T13:11:32;95345.48;;;0.11;100.00
34065;BME280;20339;49.754;20.158;2023-01-19T13:17:30;95360.56;;;0.03;100.00
34065;BME280;20339;49.754;20.158;2023-01-19T13:20:42;95358.73;;;-0.01;100.00
34065;BME280;20339;49.754;20.158;2023-01-19T13:23:20;95362.40;;;-0.04;100.00
34065;BME280;20339;49.754;20.158;2023-01-19T13:25:57;95372.32;;;-0.07;100.00
34065;BME280;20339;49.754;20.158;2023-01-19T13:28:40;95379.95;;;-0.09;100.00
34065;BME280;20339;49.754;20.158;2023-01-19T13:31:13;95385.56;;;-0.11;100.00
34065;BME280;20339;49.754;20.158;2023-01-19T13:33:49;95387.73;;;-0.13;100.00
34065;BME280;20339;49.754;20.158;2023-01-19T13:36:28;95388.30;;;-0.16;100.00
34065;BME280;20339;49.754;20.158;2023-01-19T13:39:02;95389.34;;;-0.19;100.00
34065;BME280;20339;49.754;20.158;2023-01-19T13:41:37;95387.92;;;-0.21;100.00
34065;BME280;20339;49.754;20.158;2023-01-19T13:44:11;95388.98;;;-0.19;100.00